createdAt,value
2023-04-18T00:02:38.846Z,6.89
2023-04-18T00:07:41.899Z,6.81
2023-04-18T00:12:45.259Z,6.76
2023-04-18T00:17:48.966Z,6.74
2023-04-18T00:22:53.377Z,6.71
2023-04-18T00:27:56.185Z,6.66
2023-04-18T00:32:59.209Z,6.62
2023-04-18T00:38:02.124Z,6.59
2023-04-18T00:43:07.547Z,6.58
2023-04-18T00:48:10.999Z,6.57
2023-04-18T00:53:15.691Z,6.56
2023-04-18T00:58:18.536Z,6.53
2023-04-18T01:03:23.131Z,6.48
2023-04-18T01:08:26.234Z,6.44
2023-04-18T01:13:29.113Z,6.41
2023-04-18T01:18:32.582Z,6.40
2023-04-18T01:23:35.830Z,6.36
2023-04-18T01:28:38.651Z,6.31
2023-04-18T01:33:41.522Z,6.30
2023-04-18T01:38:44.437Z,6.29
2023-04-18T01:43:47.275Z,6.31
2023-04-18T01:48:50.408Z,6.39
2023-04-18T01:53:53.457Z,6.44
2023-04-18T01:58:56.413Z,6.45
2023-04-18T02:03:59.334Z,6.47
2023-04-18T02:09:02.287Z,6.49
2023-04-18T02:14:06.143Z,6.49
2023-04-18T02:19:09.268Z,6.50
2023-04-18T02:24:12.334Z,6.49
2023-04-18T02:29:15.548Z,6.49
2023-04-18T02:34:18.427Z,6.48
2023-04-18T02:39:21.695Z,6.47
2023-04-18T02:44:24.709Z,6.43
2023-04-18T02:49:27.702Z,6.42
2023-04-18T02:54:30.624Z,6.41
2023-04-18T02:59:33.489Z,6.40
2023-04-18T03:04:36.432Z,6.41
2023-04-18T03:09:39.318Z,6.44
2023-04-18T03:14:42.468Z,6.44
2023-04-18T03:19:46.501Z,6.43
2023-04-18T03:24:49.455Z,6.42
2023-04-18T03:29:52.316Z,6.41
2023-04-18T03:34:55.225Z,6.42
2023-04-18T03:39:58.042Z,6.41
2023-04-18T03:45:00.865Z,6.39
2023-04-18T03:50:04.143Z,6.38
2023-04-18T03:55:07.419Z,6.37
2023-04-18T04:00:11.199Z,6.35
2023-04-18T04:05:14.015Z,6.34
2023-04-18T04:10:16.962Z,6.33
2023-04-18T04:15:19.857Z,6.48
2023-04-18T04:20:26.748Z,6.79
2023-04-18T04:25:29.923Z,7.10
2023-04-18T04:30:33.754Z,7.26
2023-04-18T04:35:36.732Z,7.15
2023-04-18T04:40:39.584Z,6.99
2023-04-18T04:45:44.722Z,6.91
2023-04-18T04:50:59.487Z,6.86
2023-04-18T04:56:02.502Z,6.90
2023-04-18T05:01:07.779Z,6.97
2023-04-18T05:06:10.880Z,7.01
2023-04-18T05:11:13.843Z,7.04
2023-04-18T05:16:16.921Z,7.06
2023-04-18T05:21:19.811Z,7.08
2023-04-18T05:26:23.258Z,7.06
2023-04-18T05:31:26.964Z,7.07
2023-04-18T05:36:29.893Z,7.09
2023-04-18T05:41:35.468Z,7.06
2023-04-18T05:46:38.574Z,7.08
2023-04-18T05:51:44.391Z,7.22
2023-04-18T05:56:48.482Z,7.26
2023-04-18T06:01:51.531Z,7.42
2023-04-18T06:06:54.934Z,7.59
2023-04-18T06:11:58.373Z,7.83
2023-04-18T06:17:01.365Z,8.12
2023-04-18T06:22:04.239Z,8.59
2023-04-18T06:27:09.368Z,9.16
2023-04-18T06:32:17.991Z,9.83
2023-04-18T06:37:21.228Z,10.38
2023-04-18T06:42:24.650Z,10.78
2023-04-18T06:47:28.038Z,11.07
2023-04-18T06:52:30.946Z,11.45
2023-04-18T06:57:33.837Z,11.85
2023-04-18T07:02:41.256Z,12.16
2023-04-18T07:07:44.463Z,12.37
2023-04-18T07:12:47.692Z,12.76
2023-04-18T07:17:50.619Z,12.98
2023-04-18T07:22:53.470Z,13.01
2023-04-18T07:27:56.603Z,12.98
2023-04-18T07:32:59.501Z,13.15
2023-04-18T07:38:02.546Z,13.41
2023-04-18T07:43:05.553Z,13.57
2023-04-18T07:48:08.494Z,13.81
2023-04-18T07:53:11.482Z,14.14
2023-04-18T07:58:14.456Z,13.74
2023-04-18T08:03:17.457Z,13.98
2023-04-18T08:08:20.973Z,14.17
2023-04-18T08:13:23.849Z,14.43
2023-04-18T08:18:26.793Z,14.39
2023-04-18T08:23:29.766Z,14.78
2023-04-18T08:28:32.688Z,15.23
2023-04-18T08:33:35.824Z,15.11
2023-04-18T08:38:38.633Z,15.17
2023-04-18T08:43:41.503Z,14.94
2023-04-18T08:48:45.191Z,15.01
2023-04-18T08:53:48.690Z,15.31
2023-04-18T08:58:52.351Z,15.53
2023-04-18T09:03:55.345Z,15.50
2023-04-18T09:08:59.272Z,15.32
2023-04-18T09:14:02.729Z,15.39
2023-04-18T09:19:13.250Z,15.75
2023-04-18T09:24:24.887Z,16.15
2023-04-18T09:29:49.621Z,16.36
2023-04-18T09:35:05.589Z,16.31
2023-04-18T09:40:19.165Z,16.19
2023-04-18T09:45:24.364Z,16.32
2023-04-18T09:50:27.315Z,16.35
2023-04-18T09:55:32.138Z,16.35
2023-04-18T10:00:38.334Z,16.29
2023-04-18T10:05:42.248Z,16.33
2023-04-18T10:10:45.339Z,16.73
2023-04-18T10:15:51.809Z,17.02
2023-04-18T10:21:05.319Z,17.17
2023-04-18T10:26:10.273Z,17.19
2023-04-18T10:31:13.239Z,16.93
2023-04-18T10:36:20.864Z,16.60
2023-04-18T10:41:32.696Z,16.06
2023-04-18T10:46:37.690Z,15.88
2023-04-18T10:51:41.121Z,16.35
2023-04-18T10:56:59.623Z,16.52
2023-04-18T11:02:29.794Z,16.77
2023-04-18T11:07:49.019Z,17.09
2023-04-18T11:12:55.559Z,17.38
2023-04-18T11:18:03.506Z,17.36
2023-04-18T11:23:18.786Z,17.55
2023-04-18T11:28:24.934Z,17.45
2023-04-18T11:33:29.476Z,16.80
2023-04-18T11:38:32.442Z,16.80
2023-04-18T11:43:35.338Z,17.25
2023-04-18T11:48:43.468Z,16.88
2023-04-18T11:53:46.820Z,16.48
2023-04-18T11:58:49.778Z,16.62
2023-04-18T12:04:04.425Z,17.28
2023-04-18T12:09:07.571Z,17.04
2023-04-18T12:14:21.826Z,16.82
2023-04-18T12:19:29.450Z,16.59
2023-04-18T12:24:33.036Z,16.51
2023-04-18T12:29:35.939Z,16.26
2023-04-18T12:34:38.814Z,16.40
2023-04-18T12:39:41.677Z,16.29
2023-04-18T12:44:45.851Z,16.14
2023-04-18T12:49:50.516Z,15.86
2023-04-18T12:54:53.908Z,16.12
2023-04-18T12:59:57.046Z,16.60
2023-04-18T13:05:08.868Z,17.04
2023-04-18T13:10:19.353Z,16.95
2023-04-18T13:15:24.021Z,16.41
2023-04-18T13:20:27.057Z,15.87
2023-04-18T13:25:30.061Z,15.47
2023-04-18T13:30:35.819Z,15.47
2023-04-18T13:35:42.012Z,15.35
2023-04-18T13:40:47.363Z,15.24
2023-04-18T13:45:50.522Z,14.90
2023-04-18T13:50:54.317Z,14.88
2023-04-18T13:55:57.537Z,14.81
2023-04-18T14:01:01.251Z,14.68
2023-04-18T14:06:05.128Z,14.47
2023-04-18T14:11:08.956Z,14.53
2023-04-18T14:21:36.686Z,14.79
2023-04-18T14:26:40.269Z,14.92
2023-04-18T14:31:43.606Z,15.04
2023-04-18T14:36:47.053Z,14.87
2023-04-18T14:41:50.589Z,14.48
2023-04-18T14:46:54.047Z,14.27
2023-04-18T14:51:57.639Z,13.93
2023-04-18T14:57:01.882Z,13.86
2023-04-18T15:02:05.327Z,13.72
2023-04-18T15:07:11.369Z,13.61
2023-04-18T15:12:14.538Z,13.43
2023-04-18T15:17:17.703Z,13.21
2023-04-18T15:22:20.813Z,13.04
2023-04-18T15:27:24.019Z,12.95
2023-04-18T15:32:28.768Z,12.88
2023-04-18T15:37:32.955Z,12.80
2023-04-18T15:42:37.253Z,12.75
2023-04-18T15:47:42.089Z,12.78
2023-04-18T15:52:45.402Z,12.66
2023-04-18T15:57:48.768Z,12.73
2023-04-18T16:02:52.018Z,12.74
2023-04-18T16:07:56.398Z,12.74
2023-04-18T16:12:59.671Z,12.72
2023-04-18T16:18:02.654Z,12.73
2023-04-18T16:23:05.699Z,12.71
2023-04-18T16:28:10.572Z,12.66
2023-04-18T16:33:16.854Z,12.59
2023-04-18T16:38:24.111Z,12.55
2023-04-18T16:43:31.705Z,12.52
2023-04-18T16:48:38.214Z,12.50
2023-04-18T16:53:42.895Z,12.44
2023-04-18T16:58:46.357Z,12.45
2023-04-18T17:03:49.756Z,12.48
2023-04-18T17:08:54.385Z,12.41
2023-04-18T17:13:58.071Z,12.40
2023-04-18T17:19:01.813Z,12.42
2023-04-18T17:24:07.381Z,12.33
2023-04-18T17:29:12.825Z,12.18
2023-04-18T17:34:45.873Z,12.08
2023-04-18T17:39:50.312Z,11.94
2023-04-18T17:44:55.354Z,11.80
2023-04-18T17:50:04.807Z,11.67
2023-04-18T17:55:08.521Z,11.54
2023-04-18T18:00:13.828Z,11.39
2023-04-18T18:05:17.396Z,11.28
2023-04-18T18:10:20.734Z,11.16
2023-04-18T18:15:27.006Z,11.07
2023-04-18T18:20:31.252Z,10.97
2023-04-18T18:25:37.282Z,10.83
2023-04-18T18:30:40.760Z,10.76
2023-04-18T18:35:43.767Z,10.65
2023-04-18T18:40:46.834Z,10.55
2023-04-18T18:45:50.027Z,10.44
2023-04-18T18:50:52.930Z,10.34
2023-04-18T18:55:56.553Z,10.19
2023-04-18T19:01:02.433Z,10.10
2023-04-18T19:06:07.422Z,10.00
2023-04-18T19:11:12.814Z,9.95
2023-04-18T19:16:15.789Z,9.90
2023-04-18T19:21:20.254Z,9.82
2023-04-18T19:26:23.222Z,9.71
2023-04-18T19:31:26.284Z,9.62
2023-04-18T19:36:29.402Z,9.50
2023-04-18T19:41:32.248Z,9.34
2023-04-18T19:46:35.321Z,9.19
2023-04-18T19:51:40.381Z,9.02
2023-04-18T19:56:43.468Z,8.83
2023-04-18T20:01:49.163Z,8.65
2023-04-18T20:06:53.591Z,8.47
2023-04-18T20:12:00.495Z,8.34
2023-04-18T20:17:03.418Z,8.14
2023-04-18T20:22:06.604Z,7.86
2023-04-18T20:27:09.548Z,7.63
2023-04-18T20:32:12.470Z,7.41
2023-04-18T20:37:18.162Z,7.25
2023-04-18T20:42:21.179Z,7.14
2023-04-18T20:47:24.199Z,6.99
2023-04-18T20:52:27.143Z,6.89
2023-04-18T20:57:30.111Z,6.78
2023-04-18T21:02:33.370Z,6.68
2023-04-18T21:07:36.967Z,6.53
2023-04-18T21:12:39.797Z,6.45
2023-04-18T21:17:42.699Z,6.34
2023-04-18T21:22:45.547Z,6.26
2023-04-18T21:27:50.778Z,6.21
2023-04-18T21:32:53.846Z,6.18
2023-04-18T21:37:57.055Z,6.16
2023-04-18T21:42:59.899Z,6.15
2023-04-18T21:48:02.809Z,6.09
2023-04-18T21:53:05.644Z,6.00
2023-04-18T21:58:08.518Z,5.87
2023-04-18T22:03:11.737Z,5.75
2023-04-18T22:08:17.492Z,5.61
2023-04-18T22:13:22.020Z,5.48
2023-04-18T22:18:25.420Z,5.41
2023-04-18T22:23:28.495Z,5.36
2023-04-18T22:28:32.430Z,5.36
2023-04-18T22:33:35.421Z,5.30
2023-04-18T22:38:38.338Z,5.24
2023-04-18T22:43:41.271Z,5.14
2023-04-18T22:48:45.002Z,5.10
2023-04-18T22:53:47.798Z,5.01
2023-04-18T22:58:51.053Z,4.93
2023-04-18T23:03:54.201Z,4.92
2023-04-18T23:08:57.257Z,4.89
2023-04-18T23:14:00.149Z,4.90
2023-04-18T23:19:04.542Z,4.90
2023-04-18T23:24:07.824Z,4.91
2023-04-18T23:29:10.683Z,4.89
2023-04-18T23:34:13.851Z,4.89
2023-04-18T23:39:18.660Z,4.88
2023-04-18T23:44:21.786Z,4.87
2023-04-18T23:49:25.470Z,4.83
2023-04-18T23:54:28.495Z,4.78
2023-04-18T23:59:31.298Z,4.76
